createdAt,value
2023-09-07T00:00:11.925Z,102607.61
2023-09-07T00:01:30.167Z,102602.80
2023-09-07T00:02:39.533Z,102606.98
2023-09-07T00:03:43.469Z,102605.62
2023-09-07T00:04:46.812Z,102602.43
2023-09-07T00:05:49.722Z,102605.09
2023-09-07T00:06:53.073Z,102607.35
2023-09-07T00:07:57.039Z,102609.90
2023-09-07T00:08:59.953Z,102605.67
2023-09-07T00:10:04.273Z,102606.86
2023-09-07T00:11:07.641Z,102607.13
2023-09-07T00:12:10.515Z,102604.83
2023-09-07T00:13:15.701Z,102604.30
2023-09-07T00:14:18.737Z,102605.20
2023-09-07T00:15:22.511Z,102605.52
2023-09-07T00:16:25.569Z,102604.98
2023-09-07T00:17:28.638Z,102610.54
2023-09-07T00:18:32.348Z,102612.05
2023-09-07T00:19:38.018Z,102611.22
2023-09-07T00:20:41.831Z,102614.31
2023-09-07T00:21:44.761Z,102617.14
2023-09-07T00:22:47.623Z,102617.83
2023-09-07T00:23:50.514Z,102616.99
2023-09-07T00:24:53.547Z,102616.20
2023-09-07T00:25:56.832Z,102614.48
2023-09-07T00:26:59.770Z,102620.64
2023-09-07T00:28:02.869Z,102619.92
2023-09-07T00:29:07.478Z,102621.30
2023-09-07T00:30:11.157Z,102618.29
2023-09-07T00:31:14.257Z,102617.41
2023-09-07T00:32:17.357Z,102616.88
2023-09-07T00:33:20.323Z,102616.51
2023-09-07T00:34:23.302Z,102615.89
2023-09-07T00:35:27.017Z,102614.06
2023-09-07T00:36:29.972Z,102618.21
2023-09-07T00:37:33.701Z,102617.01
2023-09-07T00:38:36.642Z,102621.56
2023-09-07T00:39:39.595Z,102621.35
2023-09-07T00:40:46.445Z,102621.69
2023-09-07T00:41:49.348Z,102624.73
2023-09-07T00:42:52.192Z,102623.38
2023-09-07T00:43:55.166Z,102620.22
2023-09-07T00:44:58.145Z,102621.10
2023-09-07T00:46:01.179Z,102621.80
2023-09-07T00:47:04.514Z,102621.52
2023-09-07T00:48:08.363Z,102620.23
2023-09-07T00:49:13.024Z,102622.11
2023-09-07T00:50:17.609Z,102619.77
2023-09-07T00:51:20.725Z,102617.27
2023-09-07T00:52:24.558Z,102619.73
2023-09-07T00:53:28.528Z,102619.67
2023-09-07T00:54:31.654Z,102616.30
2023-09-07T00:55:36.180Z,102614.84
2023-09-07T00:56:39.212Z,102620.60
2023-09-07T00:57:43.920Z,102620.10
2023-09-07T00:58:47.311Z,102620.42
2023-09-07T00:59:50.198Z,102620.80
2023-09-07T01:00:53.149Z,102619.48
2023-09-07T01:01:56.102Z,102618.81
2023-09-07T01:03:00.005Z,102620.14
2023-09-07T01:04:04.601Z,102618.97
2023-09-07T01:05:08.154Z,102617.35
2023-09-07T01:06:19.101Z,102619.77
2023-09-07T01:07:26.419Z,102618.81
2023-09-07T01:08:44.126Z,102618.02
2023-09-07T01:09:52.546Z,102619.42
2023-09-07T01:10:55.581Z,102619.25
2023-09-07T01:11:58.795Z,102621.52
2023-09-07T01:13:01.822Z,102620.68
2023-09-07T01:14:05.392Z,102619.92
2023-09-07T01:15:08.649Z,102619.26
2023-09-07T01:16:12.803Z,102622.15
2023-09-07T01:17:16.844Z,102619.43
2023-09-07T01:19:27.003Z,102621.83
2023-09-07T01:20:32.710Z,102621.98
2023-09-07T01:21:37.202Z,102623.30
2023-09-07T01:22:41.547Z,102620.27
2023-09-07T01:23:45.957Z,102620.30
2023-09-07T01:24:49.753Z,102620.18
2023-09-07T01:25:56.223Z,102620.63
2023-09-07T01:27:00.128Z,102622.26
2023-09-07T01:28:03.218Z,102618.98
2023-09-07T01:29:07.687Z,102620.59
2023-09-07T01:30:12.501Z,102617.45
2023-09-07T01:31:49.527Z,102621.58
2023-09-07T01:32:52.796Z,102622.70
2023-09-07T01:33:56.240Z,102619.86
2023-09-07T01:35:00.628Z,102622.84
2023-09-07T01:36:04.170Z,102622.63
2023-09-07T01:37:07.317Z,102620.02
2023-09-07T01:38:10.436Z,102623.00
2023-09-07T01:39:13.368Z,102617.98
2023-09-07T01:40:16.347Z,102616.39
2023-09-07T01:41:19.317Z,102614.88
2023-09-07T01:42:23.402Z,102612.63
2023-09-07T01:43:26.377Z,102616.05
2023-09-07T01:44:30.894Z,102618.72
2023-09-07T01:45:33.878Z,102614.98
2023-09-07T01:46:39.720Z,102617.67
2023-09-07T01:47:43.295Z,102619.09
2023-09-07T01:48:46.360Z,102619.58
2023-09-07T01:49:52.161Z,102619.64
2023-09-07T01:50:55.606Z,102619.63
2023-09-07T01:51:58.724Z,102622.34
2023-09-07T01:53:02.055Z,102623.18
2023-09-07T01:54:06.385Z,102622.40
2023-09-07T01:55:09.409Z,102622.17
2023-09-07T01:56:12.539Z,102624.89
2023-09-07T01:57:15.639Z,102625.27
2023-09-07T01:58:18.762Z,102624.16
2023-09-07T01:59:22.009Z,102624.92
2023-09-07T02:00:25.054Z,102621.86
2023-09-07T02:01:35.112Z,102622.98
2023-09-07T02:02:38.053Z,102623.19
2023-09-07T02:03:40.988Z,102622.94
2023-09-07T02:04:47.055Z,102621.92
2023-09-07T02:05:51.279Z,102624.77
2023-09-07T02:06:54.254Z,102623.80
2023-09-07T02:07:57.470Z,102621.91
2023-09-07T02:09:01.099Z,102625.92
2023-09-07T02:10:06.810Z,102626.60
2023-09-07T02:11:09.895Z,102622.41
2023-09-07T02:12:13.031Z,102627.17
2023-09-07T02:13:16.047Z,102626.25
2023-09-07T02:14:19.373Z,102627.34
2023-09-07T02:15:22.275Z,102627.45
2023-09-07T02:16:25.339Z,102631.43
2023-09-07T02:17:28.717Z,102630.17
2023-09-07T02:18:34.121Z,102627.20
2023-09-07T02:19:38.021Z,102629.23
2023-09-07T02:20:41.310Z,102628.66
2023-09-07T02:21:47.321Z,102628.16
2023-09-07T02:22:51.558Z,102628.67
2023-09-07T02:23:56.923Z,102627.97
2023-09-07T02:25:03.747Z,102627.00
2023-09-07T02:26:06.922Z,102627.50
2023-09-07T02:27:10.475Z,102628.77
2023-09-07T02:28:14.170Z,102630.63
2023-09-07T02:29:17.421Z,102632.95
2023-09-07T02:30:20.683Z,102629.86
2023-09-07T02:31:25.411Z,102633.40
2023-09-07T02:32:28.967Z,102629.66
2023-09-07T02:33:32.572Z,102630.61
2023-09-07T02:34:37.211Z,102632.91
2023-09-07T02:35:40.312Z,102633.44
2023-09-07T02:36:43.484Z,102630.73
2023-09-07T02:37:46.407Z,102631.83
2023-09-07T02:38:49.344Z,102636.98
2023-09-07T02:39:52.255Z,102634.73
2023-09-07T02:40:56.782Z,102635.04
2023-09-07T02:41:59.659Z,102637.98
2023-09-07T02:43:02.538Z,102635.58
2023-09-07T02:44:06.227Z,102634.86
2023-09-07T02:45:12.737Z,102635.59
2023-09-07T02:46:15.778Z,102636.39
2023-09-07T02:47:18.836Z,102634.27
2023-09-07T02:48:21.848Z,102633.96
2023-09-07T02:49:24.936Z,102634.64
2023-09-07T02:50:31.769Z,102633.23
2023-09-07T02:51:34.709Z,102629.53
2023-09-07T02:52:37.810Z,102626.52
2023-09-07T02:53:41.004Z,102627.07
2023-09-07T02:54:44.097Z,102625.57
2023-09-07T02:55:47.238Z,102625.79
2023-09-07T02:56:50.385Z,102626.39
2023-09-07T02:57:53.501Z,102622.23
2023-09-07T02:58:57.880Z,102624.33
2023-09-07T03:00:00.931Z,102619.98
2023-09-07T03:01:10.054Z,102618.92
2023-09-07T03:02:13.615Z,102621.32
2023-09-07T03:03:16.815Z,102618.95
2023-09-07T03:04:20.586Z,102624.70
2023-09-07T03:05:23.671Z,102623.52
2023-09-07T03:06:26.976Z,102622.23
2023-09-07T03:07:35.540Z,102623.73
2023-09-07T03:08:38.685Z,102620.80
2023-09-07T03:09:41.811Z,102623.56
2023-09-07T03:10:45.331Z,102623.65
2023-09-07T03:11:49.120Z,102622.55
2023-09-07T03:12:53.892Z,102623.65
2023-09-07T03:13:56.923Z,102622.89
2023-09-07T03:15:00.115Z,102622.41
2023-09-07T03:16:05.305Z,102624.81
2023-09-07T03:17:08.526Z,102620.96
2023-09-07T03:18:11.890Z,102620.67
2023-09-07T03:19:15.719Z,102624.42
2023-09-07T03:20:19.073Z,102622.81
2023-09-07T03:21:30.277Z,102624.63
2023-09-07T03:22:33.611Z,102620.31
2023-09-07T03:23:37.070Z,102621.15
2023-09-07T03:24:40.451Z,102624.20
2023-09-07T03:25:44.178Z,102620.36
2023-09-07T03:26:47.807Z,102618.55
2023-09-07T03:27:50.847Z,102626.41
2023-09-07T03:28:54.415Z,102622.72
2023-09-07T03:29:57.584Z,102626.40
2023-09-07T03:31:00.900Z,102625.81
2023-09-07T03:32:04.492Z,102627.02
2023-09-07T03:33:07.833Z,102631.85
2023-09-07T03:34:11.703Z,102631.49
2023-09-07T03:35:14.885Z,102632.36
2023-09-07T03:36:17.902Z,102630.02
2023-09-07T03:37:20.950Z,102629.38
2023-09-07T03:38:24.763Z,102632.86
2023-09-07T03:39:27.897Z,102632.06
2023-09-07T03:40:31.487Z,102632.85
2023-09-07T03:41:35.617Z,102633.43
2023-09-07T03:42:38.758Z,102632.17
2023-09-07T03:43:42.080Z,102635.29
2023-09-07T03:44:45.919Z,102634.11
2023-09-07T03:45:49.071Z,102635.84
2023-09-07T03:46:52.382Z,102633.42
2023-09-07T03:47:55.582Z,102636.11
2023-09-07T03:48:58.528Z,102637.36
2023-09-07T03:50:02.201Z,102637.28
2023-09-07T03:51:07.657Z,102638.98
2023-09-07T03:52:11.149Z,102639.57
2023-09-07T03:53:14.310Z,102641.08
2023-09-07T03:54:17.257Z,102639.88
2023-09-07T03:55:23.006Z,102639.31
2023-09-07T03:56:27.259Z,102640.41
2023-09-07T03:57:30.700Z,102635.91
2023-09-07T03:58:34.316Z,102633.98
2023-09-07T03:59:37.669Z,102637.13
2023-09-07T04:00:41.845Z,102633.87
2023-09-07T04:01:45.457Z,102638.76
2023-09-07T04:02:48.865Z,102636.14
2023-09-07T04:03:52.181Z,102634.91
2023-09-07T04:04:59.203Z,102635.61
2023-09-07T04:06:02.687Z,102637.55
2023-09-07T04:07:05.824Z,102635.54
2023-09-07T04:08:08.948Z,102636.62
2023-09-07T04:09:11.999Z,102637.55
2023-09-07T04:10:15.113Z,102637.08
2023-09-07T04:11:18.640Z,102636.87
2023-09-07T04:12:21.688Z,102636.33
2023-09-07T04:13:24.612Z,102636.30
2023-09-07T04:14:29.568Z,102637.02
2023-09-07T04:15:32.799Z,102635.05
2023-09-07T04:16:36.087Z,102635.13
2023-09-07T04:17:42.071Z,102636.50
2023-09-07T04:18:45.721Z,102638.41
2023-09-07T04:19:49.044Z,102638.27
2023-09-07T04:20:52.138Z,102637.84
2023-09-07T04:21:55.172Z,102639.01
2023-09-07T04:22:58.132Z,102638.41
2023-09-07T04:24:01.151Z,102640.48
2023-09-07T04:25:04.454Z,102637.75
2023-09-07T04:26:09.158Z,102643.93
2023-09-07T04:27:12.589Z,102644.00
2023-09-07T04:28:15.788Z,102644.23
2023-09-07T04:29:18.808Z,102645.66
2023-09-07T04:30:21.831Z,102644.25
2023-09-07T04:31:28.566Z,102645.09
2023-09-07T04:32:31.944Z,102646.42
2023-09-07T04:33:35.451Z,102643.87
2023-09-07T04:34:39.052Z,102646.20
2023-09-07T04:35:42.550Z,102647.86
2023-09-07T04:36:45.739Z,102647.17
2023-09-07T04:37:49.084Z,102647.50
2023-09-07T04:38:52.218Z,102652.30
2023-09-07T04:39:55.381Z,102652.13
2023-09-07T04:41:09.156Z,102652.61
2023-09-07T04:42:12.418Z,102654.95
2023-09-07T04:43:15.571Z,102655.63
2023-09-07T04:44:22.507Z,102655.42
2023-09-07T04:45:26.366Z,102657.13
2023-09-07T04:46:30.058Z,102657.69
2023-09-07T04:47:34.036Z,102661.41
2023-09-07T04:48:37.467Z,102661.79
2023-09-07T04:49:43.214Z,102657.64
2023-09-07T04:50:49.573Z,102662.27
2023-09-07T04:51:55.107Z,102658.27
2023-09-07T04:52:58.536Z,102658.82
2023-09-07T04:54:01.873Z,102656.73
2023-09-07T04:55:05.620Z,102658.94
2023-09-07T04:56:09.670Z,102658.98
2023-09-07T04:57:16.913Z,102657.27
2023-09-07T04:58:20.307Z,102660.04
2023-09-07T04:59:23.668Z,102660.72
2023-09-07T05:00:27.510Z,102660.06
2023-09-07T05:01:30.736Z,102659.05
2023-09-07T05:02:33.888Z,102661.40
2023-09-07T05:03:38.053Z,102660.15
2023-09-07T05:04:41.188Z,102660.32
2023-09-07T05:05:45.429Z,102659.91
2023-09-07T05:06:50.083Z,102662.60
2023-09-07T05:07:52.988Z,102662.77
2023-09-07T05:08:56.246Z,102661.71
2023-09-07T05:09:59.486Z,102662.64
2023-09-07T05:11:05.011Z,102660.06
2023-09-07T05:12:08.198Z,102661.80
2023-09-07T05:13:11.747Z,102662.61
2023-09-07T05:14:15.215Z,102664.70
2023-09-07T05:15:18.786Z,102662.73
2023-09-07T05:16:22.018Z,102663.69
2023-09-07T05:17:25.100Z,102669.81
2023-09-07T05:18:28.587Z,102669.98
2023-09-07T05:19:31.817Z,102669.77
2023-09-07T05:20:35.005Z,102672.52
2023-09-07T05:21:40.773Z,102671.27
2023-09-07T05:22:43.972Z,102673.89
2023-09-07T05:23:47.865Z,102678.33
2023-09-07T05:24:51.078Z,102681.05
2023-09-07T05:25:55.387Z,102684.45
2023-09-07T05:26:59.903Z,102686.23
2023-09-07T05:28:03.317Z,102684.95
2023-09-07T05:29:06.377Z,102685.90
2023-09-07T05:30:10.250Z,102683.80
2023-09-07T05:31:13.766Z,102681.86
2023-09-07T05:32:16.864Z,102684.82
2023-09-07T05:33:20.212Z,102683.86
2023-09-07T05:34:23.261Z,102689.33
2023-09-07T05:35:28.783Z,102688.09
2023-09-07T05:36:32.129Z,102687.28
2023-09-07T05:37:35.079Z,102692.42
2023-09-07T05:38:39.020Z,102688.80
2023-09-07T05:39:42.718Z,102686.82
2023-09-07T05:40:45.818Z,102687.30
2023-09-07T05:41:50.995Z,102688.70
2023-09-07T05:42:54.636Z,102686.35
2023-09-07T05:43:57.878Z,102688.17
2023-09-07T05:45:00.957Z,102689.52
2023-09-07T05:46:04.296Z,102692.01
2023-09-07T05:47:07.608Z,102687.14
2023-09-07T05:48:10.826Z,102691.33
2023-09-07T05:49:13.946Z,102690.20
2023-09-07T05:50:16.955Z,102691.14
2023-09-07T05:51:19.994Z,102692.11
2023-09-07T05:52:23.327Z,102693.83
2023-09-07T05:53:27.275Z,102695.11
2023-09-07T05:54:30.473Z,102696.84
2023-09-07T05:55:33.573Z,102696.80
2023-09-07T05:56:36.923Z,102698.00
2023-09-07T05:57:40.195Z,102697.84
2023-09-07T05:58:43.031Z,102696.86
2023-09-07T05:59:45.927Z,102696.39
2023-09-07T06:00:49.121Z,102691.45
2023-09-07T06:01:52.240Z,102691.09
2023-09-07T06:02:55.457Z,102692.33
2023-09-07T06:04:00.053Z,102690.78
2023-09-07T06:05:03.679Z,102690.52
2023-09-07T06:06:06.589Z,102694.95
2023-09-07T06:07:09.637Z,102692.23
2023-09-07T06:08:12.780Z,102693.20
2023-09-07T06:09:15.788Z,102694.53
2023-09-07T06:10:20.463Z,102694.48
2023-09-07T06:11:24.179Z,102696.02
2023-09-07T06:12:27.140Z,102695.84
2023-09-07T06:13:30.386Z,102695.27
2023-09-07T06:14:33.797Z,102690.80
2023-09-07T06:15:37.040Z,102696.30
2023-09-07T06:16:41.025Z,102698.11
2023-09-07T06:17:44.242Z,102696.09
2023-09-07T06:18:47.631Z,102696.67
2023-09-07T06:19:50.722Z,102700.23
2023-09-07T06:20:53.655Z,102699.23
2023-09-07T06:21:56.636Z,102701.13
2023-09-07T06:22:59.621Z,102700.69
2023-09-07T06:24:02.662Z,102701.36
2023-09-07T06:25:06.113Z,102700.09
2023-09-07T06:26:09.071Z,102702.12
2023-09-07T06:27:12.003Z,102700.17
2023-09-07T06:28:14.936Z,102704.06
2023-09-07T06:29:18.222Z,102700.87
2023-09-07T06:30:21.254Z,102706.09
2023-09-07T06:31:24.588Z,102704.39
2023-09-07T06:32:27.680Z,102706.65
2023-09-07T06:33:31.128Z,102707.15
2023-09-07T06:34:34.433Z,102703.83
2023-09-07T06:35:37.571Z,102705.41
2023-09-07T06:36:47.973Z,102703.23
2023-09-07T06:37:53.958Z,102702.96
2023-09-07T06:39:00.124Z,102703.20
2023-09-07T06:40:04.961Z,102705.73
2023-09-07T06:41:08.924Z,102704.50
2023-09-07T06:42:12.900Z,102710.73
2023-09-07T06:43:23.181Z,102712.64
2023-09-07T06:44:26.301Z,102713.20
2023-09-07T06:45:29.860Z,102715.32
2023-09-07T06:46:33.464Z,102715.40
2023-09-07T06:47:36.553Z,102716.38
2023-09-07T06:48:39.908Z,102717.08
2023-09-07T06:49:42.910Z,102718.05
2023-09-07T06:50:46.616Z,102718.67
2023-09-07T06:51:49.961Z,102720.44
2023-09-07T06:52:53.044Z,102722.11
2023-09-07T06:53:58.133Z,102721.73
2023-09-07T06:55:02.631Z,102720.36
2023-09-07T06:56:07.854Z,102721.42
2023-09-07T06:57:11.016Z,102721.40
2023-09-07T06:58:14.065Z,102725.58
2023-09-07T06:59:17.506Z,102723.08
2023-09-07T07:00:21.261Z,102720.35
2023-09-07T07:01:24.381Z,102718.66
2023-09-07T07:02:27.428Z,102721.05
2023-09-07T07:03:31.823Z,102718.52
2023-09-07T07:04:36.478Z,102719.09
2023-09-07T07:05:40.239Z,102718.23
2023-09-07T07:06:43.314Z,102720.55
2023-09-07T07:07:46.567Z,102717.09
2023-09-07T07:08:49.449Z,102719.75
2023-09-07T07:09:53.779Z,102717.00
2023-09-07T07:10:57.328Z,102720.29
2023-09-07T07:12:03.967Z,102719.60
2023-09-07T07:13:07.214Z,102722.25
2023-09-07T07:14:11.667Z,102722.40
2023-09-07T07:15:14.927Z,102721.95
2023-09-07T07:16:18.532Z,102724.47
2023-09-07T07:17:22.756Z,102722.60
2023-09-07T07:18:26.435Z,102722.45
2023-09-07T07:19:29.603Z,102720.69
2023-09-07T07:20:32.623Z,102720.71
2023-09-07T07:21:35.789Z,102722.42
2023-09-07T07:22:39.303Z,102720.31
2023-09-07T07:23:42.531Z,102727.26
2023-09-07T07:24:45.721Z,102727.11
2023-09-07T07:25:48.943Z,102732.38
2023-09-07T07:26:52.173Z,102732.50
2023-09-07T07:27:55.046Z,102734.50
2023-09-07T07:28:58.025Z,102732.70
2023-09-07T07:30:01.161Z,102731.70
2023-09-07T07:31:11.167Z,102732.42
2023-09-07T07:32:16.132Z,102732.91
2023-09-07T07:33:19.260Z,102731.27
2023-09-07T07:34:22.384Z,102731.08
2023-09-07T07:35:25.823Z,102733.89
2023-09-07T07:36:30.270Z,102735.55
2023-09-07T07:37:35.009Z,102738.69
2023-09-07T07:38:40.446Z,102736.86
2023-09-07T07:39:44.082Z,102738.79
2023-09-07T07:40:48.169Z,102739.10
2023-09-07T07:41:51.999Z,102738.65
2023-09-07T07:42:54.910Z,102739.12
2023-09-07T07:43:58.610Z,102737.63
2023-09-07T07:45:01.568Z,102739.48
2023-09-07T07:46:05.154Z,102737.45
2023-09-07T07:47:09.266Z,102737.18
2023-09-07T07:48:12.633Z,102734.52
2023-09-07T07:49:17.764Z,102735.27
2023-09-07T07:50:20.995Z,102735.86
2023-09-07T07:51:24.856Z,102733.21
2023-09-07T07:52:28.376Z,102734.10
2023-09-07T07:53:32.528Z,102735.35
2023-09-07T07:54:36.522Z,102735.66
2023-09-07T07:55:41.630Z,102736.75
2023-09-07T07:56:47.816Z,102736.19
2023-09-07T07:57:50.790Z,102737.71
2023-09-07T07:58:53.902Z,102741.95
2023-09-07T07:59:57.398Z,102737.54
2023-09-07T08:01:00.727Z,102735.80
2023-09-07T08:02:07.315Z,102735.40
2023-09-07T08:03:10.642Z,102733.95
2023-09-07T08:04:14.661Z,102736.30
2023-09-07T08:05:18.368Z,102736.54
2023-09-07T08:06:21.376Z,102738.61
2023-09-07T08:07:24.680Z,102740.13
2023-09-07T08:08:27.747Z,102739.27
2023-09-07T08:09:32.126Z,102738.48
2023-09-07T08:10:38.577Z,102737.67
2023-09-07T08:11:41.964Z,102737.75
2023-09-07T08:12:45.763Z,102739.82
2023-09-07T08:13:48.887Z,102739.81
2023-09-07T08:14:51.958Z,102737.46
2023-09-07T08:15:55.094Z,102740.89
2023-09-07T08:16:58.952Z,102739.05
2023-09-07T08:18:02.228Z,102739.95
2023-09-07T08:19:05.377Z,102737.64
2023-09-07T08:20:12.222Z,102743.23
2023-09-07T08:21:15.737Z,102739.38
2023-09-07T08:22:18.956Z,102741.91
2023-09-07T08:23:24.495Z,102741.51
2023-09-07T08:24:27.824Z,102740.20
2023-09-07T08:25:30.793Z,102740.81
2023-09-07T08:26:33.719Z,102737.58
2023-09-07T08:27:36.998Z,102740.50
2023-09-07T08:28:39.979Z,102737.59
2023-09-07T08:29:43.164Z,102741.88
2023-09-07T08:30:46.327Z,102742.30
2023-09-07T08:31:51.560Z,102744.14
2023-09-07T08:32:54.562Z,102738.40
2023-09-07T08:33:57.554Z,102740.50
2023-09-07T08:35:02.301Z,102741.64
2023-09-07T08:36:06.552Z,102737.96
2023-09-07T08:37:10.496Z,102744.10
2023-09-07T08:38:14.385Z,102741.30
2023-09-07T08:39:18.383Z,102742.27
2023-09-07T08:40:22.211Z,102740.73
2023-09-07T08:41:25.589Z,102739.95
2023-09-07T08:42:29.586Z,102741.02
2023-09-07T08:43:36.267Z,102743.98
2023-09-07T08:44:43.406Z,102743.63
2023-09-07T08:46:13.321Z,102745.93
2023-09-07T08:47:17.779Z,102740.11
2023-09-07T08:48:21.754Z,102739.70
2023-09-07T08:49:25.038Z,102734.24
2023-09-07T08:50:29.674Z,102736.23
2023-09-07T08:51:37.474Z,102734.96
2023-09-07T08:52:41.420Z,102738.05
2023-09-07T08:53:47.490Z,102737.42
2023-09-07T08:54:53.037Z,102737.98
2023-09-07T08:55:56.332Z,102742.52
2023-09-07T08:56:59.752Z,102744.19
2023-09-07T08:58:02.677Z,102744.42
2023-09-07T08:59:06.540Z,102751.40
2023-09-07T09:00:15.822Z,102750.45
2023-09-07T09:01:19.596Z,102748.97
2023-09-07T09:02:22.875Z,102750.92
2023-09-07T09:03:26.049Z,102750.52
2023-09-07T09:04:29.551Z,102752.12
2023-09-07T09:05:34.238Z,102749.35
2023-09-07T09:06:37.180Z,102750.33
2023-09-07T09:07:40.178Z,102751.69
2023-09-07T09:08:51.153Z,102750.27
2023-09-07T09:10:09.721Z,102750.42
2023-09-07T09:11:12.876Z,102748.54
2023-09-07T09:12:15.845Z,102750.36
2023-09-07T09:13:28.934Z,102751.05
2023-09-07T09:14:32.177Z,102750.02
2023-09-07T09:15:35.100Z,102749.03
2023-09-07T09:16:38.163Z,102746.18
2023-09-07T09:17:41.584Z,102748.14
2023-09-07T09:18:54.980Z,102748.09
2023-09-07T09:19:58.054Z,102743.59
2023-09-07T09:21:01.070Z,102742.04
2023-09-07T09:22:05.081Z,102740.05
2023-09-07T09:23:08.648Z,102746.25
2023-09-07T09:24:12.481Z,102738.77
2023-09-07T09:25:15.630Z,102741.50
2023-09-07T09:26:19.243Z,102742.52
2023-09-07T09:27:22.101Z,102741.54
2023-09-07T09:28:27.641Z,102739.84
2023-09-07T09:29:34.245Z,102736.49
2023-09-07T09:30:38.467Z,102738.02
2023-09-07T09:31:41.677Z,102738.80
2023-09-07T09:32:45.110Z,102735.60
2023-09-07T09:33:52.825Z,102739.43
2023-09-07T09:34:55.873Z,102736.73
2023-09-07T09:35:59.050Z,102734.95
2023-09-07T09:37:04.770Z,102736.38
2023-09-07T09:38:08.214Z,102729.70
2023-09-07T09:39:11.296Z,102734.16
2023-09-07T09:40:15.435Z,102733.20
2023-09-07T09:41:18.977Z,102730.60
2023-09-07T09:42:23.078Z,102732.75
2023-09-07T09:43:27.210Z,102728.45
2023-09-07T09:44:30.344Z,102728.25
2023-09-07T09:45:34.451Z,102729.11
2023-09-07T09:46:40.716Z,102725.67
2023-09-07T09:47:43.989Z,102730.23
2023-09-07T09:48:48.434Z,102729.30
2023-09-07T09:49:52.230Z,102730.53
2023-09-07T09:50:55.717Z,102728.41
2023-09-07T09:52:01.239Z,102727.64
2023-09-07T09:53:07.831Z,102732.48
2023-09-07T09:54:11.407Z,102734.35
2023-09-07T09:55:14.846Z,102735.17
2023-09-07T09:56:20.752Z,102735.65
2023-09-07T09:57:23.866Z,102733.70
2023-09-07T09:58:27.321Z,102737.01
2023-09-07T09:59:30.262Z,102737.09
2023-09-07T10:00:39.173Z,102737.06
2023-09-07T10:01:45.614Z,102738.89
2023-09-07T10:02:55.868Z,102739.91
2023-09-07T10:03:59.102Z,102737.42
2023-09-07T10:05:08.177Z,102741.70
2023-09-07T10:06:12.620Z,102743.35
2023-09-07T10:07:15.612Z,102741.23
2023-09-07T10:08:19.924Z,102740.98
2023-09-07T10:09:23.194Z,102739.61
2023-09-07T10:10:26.182Z,102737.05
2023-09-07T10:11:40.941Z,102738.92
2023-09-07T10:12:45.422Z,102737.73
2023-09-07T10:13:58.431Z,102736.08
2023-09-07T10:15:01.483Z,102734.19
2023-09-07T10:16:08.941Z,102736.29
2023-09-07T10:17:23.230Z,102735.24
2023-09-07T10:18:34.995Z,102738.31
2023-09-07T10:19:39.524Z,102738.11
2023-09-07T10:21:00.592Z,102737.73
2023-09-07T10:22:04.594Z,102734.77
2023-09-07T10:23:07.444Z,102733.45
2023-09-07T10:24:10.429Z,102735.05
2023-09-07T10:25:23.831Z,102734.25
2023-09-07T10:26:26.846Z,102732.42
2023-09-07T10:27:38.515Z,102732.45
2023-09-07T10:28:41.845Z,102734.29
2023-09-07T10:29:47.395Z,102730.48
2023-09-07T10:31:01.760Z,102729.41
2023-09-07T10:32:07.998Z,102726.00
2023-09-07T10:33:23.869Z,102727.54
2023-09-07T10:34:40.650Z,102724.66
2023-09-07T10:35:44.601Z,102721.30
2023-09-07T10:36:48.045Z,102719.52
2023-09-07T10:37:50.912Z,102723.86
2023-09-07T10:38:56.381Z,102720.18
2023-09-07T10:39:59.722Z,102721.30
2023-09-07T10:41:05.518Z,102722.04
2023-09-07T10:42:08.580Z,102720.96
2023-09-07T10:43:11.946Z,102724.15
2023-09-07T10:44:15.145Z,102720.61
2023-09-07T10:45:18.640Z,102722.08
2023-09-07T10:46:23.246Z,102721.25
2023-09-07T10:47:26.657Z,102721.65
2023-09-07T10:48:31.023Z,102723.97
2023-09-07T10:49:33.970Z,102722.00
2023-09-07T10:50:47.133Z,102722.46
2023-09-07T10:51:50.433Z,102723.93
2023-09-07T10:52:55.141Z,102723.67
2023-09-07T10:53:58.110Z,102726.25
2023-09-07T10:55:01.810Z,102727.39
2023-09-07T10:56:05.823Z,102723.58
2023-09-07T10:57:18.314Z,102723.68
2023-09-07T10:58:31.172Z,102718.42
2023-09-07T10:59:34.399Z,102717.23
2023-09-07T11:00:37.759Z,102719.32
2023-09-07T11:01:40.874Z,102719.63
2023-09-07T11:02:44.695Z,102722.21
2023-09-07T11:03:48.262Z,102718.09
2023-09-07T11:04:51.210Z,102721.19
2023-09-07T11:06:02.603Z,102717.83
2023-09-07T11:07:06.071Z,102717.89
2023-09-07T11:08:09.517Z,102717.34
2023-09-07T11:09:12.722Z,102716.61
2023-09-07T11:10:15.906Z,102718.33
2023-09-07T11:11:19.055Z,102715.54
2023-09-07T11:12:22.537Z,102714.99
2023-09-07T11:13:26.472Z,102718.67
2023-09-07T11:14:31.413Z,102713.68
2023-09-07T11:15:34.877Z,102720.27
2023-09-07T11:16:38.049Z,102719.34
2023-09-07T11:17:41.314Z,102719.89
2023-09-07T11:18:45.980Z,102717.31
2023-09-07T11:19:53.363Z,102722.08
2023-09-07T11:20:57.712Z,102717.75
2023-09-07T11:22:00.651Z,102716.55
2023-09-07T11:23:05.639Z,102720.81
2023-09-07T11:24:09.547Z,102721.80
2023-09-07T11:25:12.598Z,102721.66
2023-09-07T11:26:18.299Z,102722.35
2023-09-07T11:27:22.650Z,102718.03
2023-09-07T11:28:26.140Z,102720.30
2023-09-07T11:29:32.690Z,102719.77
2023-09-07T11:30:36.319Z,102718.99
2023-09-07T11:31:39.329Z,102720.91
2023-09-07T11:32:43.970Z,102718.30
2023-09-07T11:33:48.033Z,102716.73
2023-09-07T11:34:52.725Z,102720.11
2023-09-07T11:35:56.187Z,102716.14
2023-09-07T11:36:59.043Z,102717.13
2023-09-07T11:38:08.027Z,102718.77
2023-09-07T11:39:14.579Z,102715.55
2023-09-07T11:40:17.906Z,102716.92
2023-09-07T11:41:20.855Z,102714.30
2023-09-07T11:42:23.984Z,102714.36
2023-09-07T11:43:26.907Z,102715.58
2023-09-07T11:44:29.880Z,102715.07
2023-09-07T11:45:33.445Z,102718.52
2023-09-07T11:46:37.624Z,102717.84
2023-09-07T11:47:41.023Z,102714.85
2023-09-07T11:48:44.085Z,102715.58
2023-09-07T11:49:47.126Z,102716.76
2023-09-07T11:50:50.008Z,102715.05
2023-09-07T11:51:52.978Z,102717.52
2023-09-07T11:52:56.179Z,102715.98
2023-09-07T11:54:00.067Z,102714.39
2023-09-07T11:55:04.492Z,102714.13
2023-09-07T11:56:07.492Z,102718.13
2023-09-07T11:57:10.453Z,102713.64
2023-09-07T11:58:13.399Z,102712.58
2023-09-07T11:59:18.478Z,102711.71
2023-09-07T12:00:23.437Z,102710.38
2023-09-07T12:01:27.601Z,102710.82
2023-09-07T12:02:30.739Z,102706.70
2023-09-07T12:03:34.567Z,102710.70
2023-09-07T12:04:41.785Z,102714.46
2023-09-07T12:05:45.553Z,102709.30
2023-09-07T12:06:48.618Z,102712.74
2023-09-07T12:07:51.603Z,102710.34
2023-09-07T12:09:02.319Z,102708.71
2023-09-07T12:10:06.042Z,102707.26
2023-09-07T12:11:09.022Z,102708.09
2023-09-07T12:12:12.196Z,102707.36
2023-09-07T12:13:15.455Z,102710.98
2023-09-07T12:14:18.413Z,102707.73